createdAt,value
2023-02-11T05:00:33.257Z,20.30
2023-02-11T05:11:38.080Z,19.70
2023-02-11T05:22:37.955Z,18.70
2023-02-11T05:33:37.834Z,18.60
2023-02-11T05:44:37.709Z,18.80
2023-02-11T05:55:37.702Z,18.90
2023-02-11T06:06:37.501Z,17.40
2023-02-11T06:17:37.352Z,17.00
2023-02-11T06:28:38.763Z,17.00
2023-02-11T06:39:37.114Z,16.00
2023-02-11T06:50:37.059Z,15.30
2023-02-11T07:01:36.919Z,14.00
2023-02-11T07:12:36.752Z,12.80
2023-02-11T07:23:36.633Z,15.60
2023-02-11T07:34:36.507Z,12.10
2023-02-11T07:45:36.374Z,14.00
2023-02-11T07:56:36.248Z,14.10
2023-02-11T08:07:36.167Z,14.60
2023-02-11T08:18:36.014Z,14.10
2023-02-11T08:29:35.927Z,14.40
2023-02-11T08:40:35.751Z,12.90
2023-02-11T08:51:35.635Z,11.00
2023-02-11T09:02:35.551Z,13.60
2023-02-11T09:13:35.392Z,11.70
2023-02-11T09:24:35.273Z,11.50
2023-02-11T09:35:35.135Z,13.60
2023-02-11T09:46:35.097Z,11.40
2023-02-11T09:57:34.887Z,12.60
2023-02-11T10:08:34.765Z,13.40
2023-02-11T10:19:34.638Z,13.20
2023-02-11T10:30:34.564Z,13.20
2023-02-11T10:41:34.402Z,13.10
2023-02-11T10:52:34.267Z,13.80
2023-02-11T11:03:34.143Z,14.30
2023-02-11T11:14:34.029Z,13.50
2023-02-11T11:25:33.897Z,15.50
2023-02-11T11:36:33.780Z,14.60
2023-02-11T11:47:33.639Z,15.50
2023-02-11T11:58:33.515Z,16.70
2023-02-11T12:09:33.404Z,18.20
2023-02-11T12:20:33.264Z,17.00
2023-02-11T12:31:33.179Z,15.90
2023-02-11T12:42:33.022Z,14.50
2023-02-11T12:53:32.884Z,16.00
2023-02-11T13:04:32.759Z,13.70
2023-02-11T13:15:32.637Z,11.30
2023-02-11T13:26:32.566Z,12.30
2023-02-11T13:37:32.399Z,12.20
2023-02-11T13:48:32.275Z,10.60
2023-02-11T13:59:32.136Z,9.90
2023-02-11T14:10:32.018Z,8.50
2023-02-11T14:21:31.893Z,8.00
2023-02-11T14:32:31.781Z,8.30
2023-02-11T14:43:31.653Z,8.70
2023-02-11T14:54:31.526Z,9.10
2023-02-11T15:05:31.401Z,6.90
2023-02-11T15:16:31.268Z,7.40
2023-02-11T15:27:31.148Z,6.70
2023-02-11T15:38:31.026Z,6.70
2023-02-11T15:49:30.895Z,7.00
2023-02-11T16:00:30.781Z,11.10
2023-02-11T16:11:30.648Z,8.00
2023-02-11T16:22:30.525Z,9.60
2023-02-11T16:33:30.405Z,9.30
2023-02-11T16:44:31.015Z,9.40
2023-02-11T16:55:30.168Z,10.20
2023-02-11T17:06:30.047Z,9.00
2023-02-11T17:17:29.907Z,10.80
2023-02-11T17:28:29.838Z,9.70
2023-02-11T17:39:29.648Z,9.60
2023-02-11T17:50:29.651Z,9.40
2023-02-11T18:01:29.507Z,8.30
2023-02-11T18:12:29.310Z,7.90
2023-02-11T18:23:29.147Z,9.70
2023-02-11T18:34:29.028Z,10.10
2023-02-11T18:45:29.026Z,12.00
2023-02-11T18:56:28.880Z,13.60
2023-02-11T19:07:28.670Z,12.80
2023-02-11T19:18:28.589Z,11.80
2023-02-11T19:29:28.407Z,16.80
2023-02-11T19:40:28.318Z,17.60
2023-02-11T19:51:28.162Z,18.40
2023-02-11T20:02:28.088Z,15.70
2023-02-11T20:13:27.918Z,13.10
2023-02-11T20:24:27.800Z,10.70
2023-02-11T20:35:27.653Z,11.80
2023-02-11T20:46:27.576Z,14.10
2023-02-11T20:57:27.402Z,14.20
2023-02-11T21:08:27.289Z,15.50
2023-02-11T21:19:27.152Z,16.90
2023-02-11T21:30:27.505Z,17.80
2023-02-11T21:41:26.927Z,17.60
2023-02-11T21:52:26.786Z,16.80
